Terre Haute, Indiana
Current Conditions -  °F | °C
As of 8:53 PM on Wednesday 26 Nov 2014 (Local Time) from KHUF Reporting Station
Broken Clouds Broken Clouds  
Wind Chill: 27°   Ceiling: 9500
Heat Index: 32°   Visibility: 10mi
Dew Point: 25°   Wind: 5mph
Humidity: 75%   Direction: 10°N
Pressure: 30.07"   Gusts: NA
Location:  39.47°N, 87.41°W
Report Text: KHUF 270153Z 01004KT 10SM BKN095 00/M04 A3007 RMK AO2 SLP190 T00001039
Loading
Personal Weather Stations






























Interactive Weather Map New forecast layout! Learn more

10-Day Weather Forecast

Advertisements
Track Severe Weather on mobile